sensor_id;sensor_type;location;lat;lon;timestamp;P1;durP1;ratioP1;P2;durP2;ratioP2
5355;SDS011;70449;52.486;13.386;2023-06-14T00:02:09;5.47;;;2.43;;
5355;SDS011;70449;52.486;13.386;2023-06-14T00:04:36;2.97;;;2.67;;
5355;SDS011;70449;52.486;13.386;2023-06-14T00:07:09;10.93;;;2.57;;
5355;SDS011;70449;52.486;13.386;2023-06-14T00:09:38;4.17;;;3.60;;
5355;SDS011;70449;52.486;13.386;2023-06-14T00:12:06;5.40;;;3.63;;
5355;SDS011;70449;52.486;13.386;2023-06-14T00:14:34;4.53;;;3.07;;
5355;SDS011;70449;52.486;13.386;2023-06-14T00:17:03;6.17;;;3.00;;
5355;SDS011;70449;52.486;13.386;2023-06-14T00:19:32;3.17;;;2.87;;
5355;SDS011;70449;52.486;13.386;2023-06-14T00:22:02;7.27;;;3.10;;
5355;SDS011;70449;52.486;13.386;2023-06-14T00:24:30;10.03;;;3.30;;
5355;SDS011;70449;52.486;13.386;2023-06-14T00:26:57;7.40;;;3.37;;
5355;SDS011;70449;52.486;13.386;2023-06-14T00:29:24;11.50;;;3.60;;
5355;SDS011;70449;52.486;13.386;2023-06-14T00:31:51;6.57;;;2.90;;
5355;SDS011;70449;52.486;13.386;2023-06-14T00:34:20;5.93;;;3.07;;
5355;SDS011;70449;52.486;13.386;2023-06-14T00:36:47;6.53;;;2.90;;
5355;SDS011;70449;52.486;13.386;2023-06-14T00:39:14;7.07;;;3.40;;
5355;SDS011;70449;52.486;13.386;2023-06-14T00:41:41;4.50;;;3.27;;
5355;SDS011;70449;52.486;13.386;2023-06-14T00:44:08;4.33;;;2.80;;
5355;SDS011;70449;52.486;13.386;2023-06-14T00:46:36;4.27;;;3.07;;
5355;SDS011;70449;52.486;13.386;2023-06-14T00:49:03;7.73;;;3.20;;
5355;SDS011;70449;52.486;13.386;2023-06-14T00:51:32;4.17;;;3.17;;
5355;SDS011;70449;52.486;13.386;2023-06-14T00:54:00;6.00;;;3.80;;
5355;SDS011;70449;52.486;13.386;2023-06-14T00:56:27;3.93;;;3.10;;
5355;SDS011;70449;52.486;13.386;2023-06-14T00:58:54;5.50;;;3.60;;
5355;SDS011;70449;52.486;13.386;2023-06-14T01:01:22;7.10;;;3.80;;
5355;SDS011;70449;52.486;13.386;2023-06-14T01:03:50;6.23;;;3.50;;
5355;SDS011;70449;52.486;13.386;2023-06-14T01:06:19;19.33;;;3.13;;
5355;SDS011;70449;52.486;13.386;2023-06-14T01:09:06;5.17;;;3.63;;
5355;SDS011;70449;52.486;13.386;2023-06-14T01:11:45;3.63;;;3.33;;
5355;SDS011;70449;52.486;13.386;2023-06-14T01:14:23;5.03;;;3.00;;
5355;SDS011;70449;52.486;13.386;2023-06-14T01:16:51;6.57;;;4.23;;
5355;SDS011;70449;52.486;13.386;2023-06-14T01:19:20;6.33;;;3.77;;
5355;SDS011;70449;52.486;13.386;2023-06-14T01:21:50;7.20;;;3.10;;
5355;SDS011;70449;52.486;13.386;2023-06-14T01:24:19;4.10;;;3.70;;
5355;SDS011;70449;52.486;13.386;2023-06-14T01:26:51;10.87;;;3.20;;
5355;SDS011;70449;52.486;13.386;2023-06-14T01:29:21;12.80;;;4.00;;
5355;SDS011;70449;52.486;13.386;2023-06-14T01:31:50;6.63;;;3.77;;
5355;SDS011;70449;52.486;13.386;2023-06-14T01:34:19;5.90;;;4.17;;
5355;SDS011;70449;52.486;13.386;2023-06-14T01:36:46;4.93;;;3.70;;
5355;SDS011;70449;52.486;13.386;2023-06-14T01:39:16;4.77;;;3.93;;
5355;SDS011;70449;52.486;13.386;2023-06-14T01:41:46;5.00;;;4.07;;
5355;SDS011;70449;52.486;13.386;2023-06-14T01:44:16;15.93;;;4.00;;
5355;SDS011;70449;52.486;13.386;2023-06-14T01:46:45;6.03;;;3.97;;
5355;SDS011;70449;52.486;13.386;2023-06-14T01:49:13;6.00;;;4.33;;
5355;SDS011;70449;52.486;13.386;2023-06-14T01:51:40;10.90;;;4.90;;
5355;SDS011;70449;52.486;13.386;2023-06-14T01:54:07;8.23;;;4.77;;
5355;SDS011;70449;52.486;13.386;2023-06-14T01:56:35;5.93;;;4.20;;
5355;SDS011;70449;52.486;13.386;2023-06-14T01:59:05;5.37;;;3.90;;
5355;SDS011;70449;52.486;13.386;2023-06-14T02:01:32;13.20;;;4.60;;
5355;SDS011;70449;52.486;13.386;2023-06-14T02:04:01;13.13;;;4.40;;
5355;SDS011;70449;52.486;13.386;2023-06-14T02:06:29;5.17;;;3.90;;
5355;SDS011;70449;52.486;13.386;2023-06-14T02:08:56;5.00;;;3.80;;
5355;SDS011;70449;52.486;13.386;2023-06-14T02:11:23;14.87;;;4.97;;
5355;SDS011;70449;52.486;13.386;2023-06-14T02:13:52;6.07;;;4.90;;
5355;SDS011;70449;52.486;13.386;2023-06-14T02:16:21;4.50;;;4.10;;
5355;SDS011;70449;52.486;13.386;2023-06-14T02:18:49;8.33;;;4.07;;
5355;SDS011;70449;52.486;13.386;2023-06-14T02:21:16;8.80;;;4.97;;
5355;SDS011;70449;52.486;13.386;2023-06-14T02:23:44;6.70;;;4.60;;
5355;SDS011;70449;52.486;13.386;2023-06-14T02:26:11;8.73;;;5.10;;
5355;SDS011;70449;52.486;13.386;2023-06-14T02:28:38;9.17;;;5.00;;
5355;SDS011;70449;52.486;13.386;2023-06-14T02:31:06;12.00;;;4.97;;
5355;SDS011;70449;52.486;13.386;2023-06-14T02:33:35;6.43;;;4.73;;
5355;SDS011;70449;52.486;13.386;2023-06-14T02:36:03;5.87;;;4.33;;
5355;SDS011;70449;52.486;13.386;2023-06-14T02:38:31;5.13;;;4.50;;
5355;SDS011;70449;52.486;13.386;2023-06-14T02:40:58;7.90;;;4.60;;
5355;SDS011;70449;52.486;13.386;2023-06-14T02:43:28;7.40;;;5.37;;
5355;SDS011;70449;52.486;13.386;2023-06-14T02:45:55;6.17;;;4.60;;
5355;SDS011;70449;52.486;13.386;2023-06-14T02:48:23;13.70;;;5.00;;
5355;SDS011;70449;52.486;13.386;2023-06-14T02:50:52;9.33;;;5.00;;
5355;SDS011;70449;52.486;13.386;2023-06-14T02:53:21;5.47;;;4.87;;
5355;SDS011;70449;52.486;13.386;2023-06-14T02:55:48;9.23;;;4.80;;
5355;SDS011;70449;52.486;13.386;2023-06-14T02:58:17;9.20;;;4.77;;
5355;SDS011;70449;52.486;13.386;2023-06-14T03:00:45;9.37;;;5.17;;
5355;SDS011;70449;52.486;13.386;2023-06-14T03:03:12;7.80;;;4.53;;
5355;SDS011;70449;52.486;13.386;2023-06-14T03:05:41;9.33;;;5.70;;
5355;SDS011;70449;52.486;13.386;2023-06-14T03:08:12;6.17;;;5.00;;
5355;SDS011;70449;52.486;13.386;2023-06-14T03:10:42;7.10;;;5.10;;
5355;SDS011;70449;52.486;13.386;2023-06-14T03:13:09;14.43;;;5.37;;
5355;SDS011;70449;52.486;13.386;2023-06-14T03:15:37;6.87;;;5.23;;
5355;SDS011;70449;52.486;13.386;2023-06-14T03:18:07;8.73;;;5.20;;
5355;SDS011;70449;52.486;13.386;2023-06-14T03:20:35;10.80;;;5.13;;
5355;SDS011;70449;52.486;13.386;2023-06-14T03:23:04;6.40;;;5.50;;
5355;SDS011;70449;52.486;13.386;2023-06-14T03:25:34;8.57;;;6.13;;
5355;SDS011;70449;52.486;13.386;2023-06-14T03:28:03;11.17;;;5.30;;
5355;SDS011;70449;52.486;13.386;2023-06-14T03:30:31;13.80;;;5.10;;
5355;SDS011;70449;52.486;13.386;2023-06-14T03:32:58;8.43;;;5.20;;
5355;SDS011;70449;52.486;13.386;2023-06-14T03:35:26;7.40;;;5.13;;
5355;SDS011;70449;52.486;13.386;2023-06-14T03:37:54;11.27;;;5.90;;
5355;SDS011;70449;52.486;13.386;2023-06-14T03:40:21;8.00;;;6.07;;
5355;SDS011;70449;52.486;13.386;2023-06-14T03:42:53;6.50;;;5.60;;
5355;SDS011;70449;52.486;13.386;2023-06-14T03:45:21;7.47;;;5.90;;
5355;SDS011;70449;52.486;13.386;2023-06-14T03:47:48;6.97;;;5.23;;
5355;SDS011;70449;52.486;13.386;2023-06-14T03:50:16;18.90;;;5.77;;
5355;SDS011;70449;52.486;13.386;2023-06-14T03:52:44;12.07;;;5.73;;
5355;SDS011;70449;52.486;13.386;2023-06-14T03:55:17;14.07;;;5.40;;
5355;SDS011;70449;52.486;13.386;2023-06-14T03:57:44;8.13;;;5.77;;
5355;SDS011;70449;52.486;13.386;2023-06-14T04:00:14;10.63;;;6.10;;
5355;SDS011;70449;52.486;13.386;2023-06-14T04:02:41;9.70;;;4.83;;
5355;SDS011;70449;52.486;13.386;2023-06-14T04:05:10;11.27;;;5.90;;
5355;SDS011;70449;52.486;13.386;2023-06-14T04:07:37;7.93;;;6.03;;
5355;SDS011;70449;52.486;13.386;2023-06-14T04:10:09;9.57;;;5.73;;
5355;SDS011;70449;52.486;13.386;2023-06-14T04:12:38;13.40;;;6.50;;
5355;SDS011;70449;52.486;13.386;2023-06-14T04:15:06;16.00;;;6.60;;
5355;SDS011;70449;52.486;13.386;2023-06-14T04:17:36;8.00;;;6.37;;
5355;SDS011;70449;52.486;13.386;2023-06-14T04:20:05;7.23;;;6.30;;
5355;SDS011;70449;52.486;13.386;2023-06-14T04:22:34;11.50;;;5.80;;
5355;SDS011;70449;52.486;13.386;2023-06-14T04:25:02;8.30;;;6.43;;
5355;SDS011;70449;52.486;13.386;2023-06-14T04:27:31;8.30;;;6.90;;
5355;SDS011;70449;52.486;13.386;2023-06-14T04:30:01;11.63;;;6.30;;
5355;SDS011;70449;52.486;13.386;2023-06-14T04:32:29;11.10;;;6.93;;
5355;SDS011;70449;52.486;13.386;2023-06-14T04:35:00;9.37;;;6.37;;
5355;SDS011;70449;52.486;13.386;2023-06-14T04:37:28;6.50;;;5.57;;
5355;SDS011;70449;52.486;13.386;2023-06-14T04:39:57;13.57;;;5.87;;
5355;SDS011;70449;52.486;13.386;2023-06-14T04:42:25;11.97;;;6.10;;
5355;SDS011;70449;52.486;13.386;2023-06-14T04:44:56;11.60;;;6.97;;
5355;SDS011;70449;52.486;13.386;2023-06-14T04:47:24;8.03;;;6.30;;
5355;SDS011;70449;52.486;13.386;2023-06-14T04:49:54;7.40;;;5.97;;
5355;SDS011;70449;52.486;13.386;2023-06-14T04:52:24;10.80;;;6.50;;
5355;SDS011;70449;52.486;13.386;2023-06-14T04:54:55;7.70;;;6.17;;
5355;SDS011;70449;52.486;13.386;2023-06-14T04:57:22;14.53;;;6.00;;
5355;SDS011;70449;52.486;13.386;2023-06-14T04:59:50;9.80;;;6.27;;
5355;SDS011;70449;52.486;13.386;2023-06-14T05:02:20;11.13;;;6.50;;
5355;SDS011;70449;52.486;13.386;2023-06-14T05:04:49;17.03;;;6.60;;
5355;SDS011;70449;52.486;13.386;2023-06-14T05:07:17;10.30;;;6.47;;
5355;SDS011;70449;52.486;13.386;2023-06-14T05:09:46;12.43;;;6.73;;
5355;SDS011;70449;52.486;13.386;2023-06-14T05:12:13;13.17;;;6.20;;
5355;SDS011;70449;52.486;13.386;2023-06-14T05:14:44;14.73;;;8.50;;
5355;SDS011;70449;52.486;13.386;2023-06-14T05:17:12;21.33;;;6.93;;
5355;SDS011;70449;52.486;13.386;2023-06-14T05:19:39;10.27;;;7.33;;
5355;SDS011;70449;52.486;13.386;2023-06-14T05:22:06;12.87;;;6.50;;
5355;SDS011;70449;52.486;13.386;2023-06-14T05:24:34;10.67;;;6.43;;
5355;SDS011;70449;52.486;13.386;2023-06-14T05:27:03;7.13;;;5.70;;
5355;SDS011;70449;52.486;13.386;2023-06-14T05:29:30;18.93;;;6.93;;
5355;SDS011;70449;52.486;13.386;2023-06-14T05:32:00;19.20;;;7.43;;
5355;SDS011;70449;52.486;13.386;2023-06-14T05:34:28;9.53;;;6.70;;
5355;SDS011;70449;52.486;13.386;2023-06-14T05:36:55;24.60;;;6.43;;
5355;SDS011;70449;52.486;13.386;2023-06-14T05:39:22;9.33;;;5.63;;
5355;SDS011;70449;52.486;13.386;2023-06-14T05:41:50;14.83;;;6.20;;
5355;SDS011;70449;52.486;13.386;2023-06-14T05:44:18;13.50;;;6.07;;
5355;SDS011;70449;52.486;13.386;2023-06-14T05:46:46;18.67;;;5.93;;
5355;SDS011;70449;52.486;13.386;2023-06-14T05:49:13;36.03;;;6.50;;
5355;SDS011;70449;52.486;13.386;2023-06-14T05:51:40;10.73;;;6.47;;
5355;SDS011;70449;52.486;13.386;2023-06-14T05:54:07;12.53;;;6.07;;
5355;SDS011;70449;52.486;13.386;2023-06-14T05:56:35;12.47;;;6.10;;
5355;SDS011;70449;52.486;13.386;2023-06-14T05:59:02;8.87;;;6.50;;
5355;SDS011;70449;52.486;13.386;2023-06-14T06:01:31;18.30;;;7.07;;
5355;SDS011;70449;52.486;13.386;2023-06-14T06:03:59;9.90;;;5.37;;
5355;SDS011;70449;52.486;13.386;2023-06-14T06:06:26;12.00;;;5.73;;
5355;SDS011;70449;52.486;13.386;2023-06-14T06:08:53;20.13;;;6.17;;
5355;SDS011;70449;52.486;13.386;2023-06-14T06:11:21;9.67;;;6.00;;
5355;SDS011;70449;52.486;13.386;2023-06-14T06:13:48;11.27;;;6.20;;
5355;SDS011;70449;52.486;13.386;2023-06-14T06:16:15;10.77;;;6.10;;
5355;SDS011;70449;52.486;13.386;2023-06-14T06:18:44;11.47;;;5.83;;
5355;SDS011;70449;52.486;13.386;2023-06-14T06:21:11;12.93;;;6.63;;
5355;SDS011;70449;52.486;13.386;2023-06-14T06:23:38;12.40;;;6.70;;
5355;SDS011;70449;52.486;13.386;2023-06-14T06:26:05;10.73;;;6.40;;
5355;SDS011;70449;52.486;13.386;2023-06-14T06:28:32;10.73;;;5.23;;
5355;SDS011;70449;52.486;13.386;2023-06-14T06:31:00;16.87;;;7.57;;
5355;SDS011;70449;52.486;13.386;2023-06-14T06:33:28;12.97;;;5.40;;
5355;SDS011;70449;52.486;13.386;2023-06-14T06:35:56;13.47;;;6.77;;
5355;SDS011;70449;52.486;13.386;2023-06-14T06:38:24;9.47;;;6.00;;
5355;SDS011;70449;52.486;13.386;2023-06-14T06:40:51;13.00;;;6.47;;
5355;SDS011;70449;52.486;13.386;2023-06-14T06:43:19;13.70;;;6.03;;
5355;SDS011;70449;52.486;13.386;2023-06-14T06:45:46;16.67;;;6.80;;
5355;SDS011;70449;52.486;13.386;2023-06-14T06:48:13;8.40;;;6.47;;
5355;SDS011;70449;52.486;13.386;2023-06-14T06:50:41;11.30;;;7.17;;
5355;SDS011;70449;52.486;13.386;2023-06-14T06:53:09;10.90;;;5.93;;
5355;SDS011;70449;52.486;13.386;2023-06-14T06:55:36;8.80;;;6.20;;
5355;SDS011;70449;52.486;13.386;2023-06-14T06:58:04;12.60;;;6.23;;
5355;SDS011;70449;52.486;13.386;2023-06-14T07:00:31;18.40;;;6.40;;
5355;SDS011;70449;52.486;13.386;2023-06-14T07:03:16;16.67;;;6.40;;
5355;SDS011;70449;52.486;13.386;2023-06-14T07:05:44;13.37;;;6.70;;
5355;SDS011;70449;52.486;13.386;2023-06-14T07:08:13;15.10;;;5.67;;
5355;SDS011;70449;52.486;13.386;2023-06-14T07:10:40;12.90;;;6.00;;
5355;SDS011;70449;52.486;13.386;2023-06-14T07:13:07;17.73;;;6.30;;
5355;SDS011;70449;52.486;13.386;2023-06-14T07:15:34;13.73;;;6.27;;
5355;SDS011;70449;52.486;13.386;2023-06-14T07:18:02;11.00;;;6.57;;
5355;SDS011;70449;52.486;13.386;2023-06-14T07:20:29;12.13;;;5.60;;
5355;SDS011;70449;52.486;13.386;2023-06-14T07:22:58;12.67;;;6.40;;
5355;SDS011;70449;52.486;13.386;2023-06-14T07:25:26;8.80;;;5.83;;
5355;SDS011;70449;52.486;13.386;2023-06-14T07:27:54;12.97;;;5.60;;
5355;SDS011;70449;52.486;13.386;2023-06-14T07:30:21;10.30;;;6.07;;
5355;SDS011;70449;52.486;13.386;2023-06-14T07:32:51;11.13;;;5.53;;
5355;SDS011;70449;52.486;13.386;2023-06-14T07:35:18;10.73;;;6.00;;
5355;SDS011;70449;52.486;13.386;2023-06-14T07:37:45;10.30;;;5.90;;
5355;SDS011;70449;52.486;13.386;2023-06-14T07:40:13;11.20;;;5.60;;
5355;SDS011;70449;52.486;13.386;2023-06-14T07:42:41;13.53;;;6.93;;
5355;SDS011;70449;52.486;13.386;2023-06-14T07:45:09;9.93;;;5.60;;
5355;SDS011;70449;52.486;13.386;2023-06-14T07:47:40;11.43;;;6.03;;
5355;SDS011;70449;52.486;13.386;2023-06-14T07:50:08;10.83;;;6.30;;
5355;SDS011;70449;52.486;13.386;2023-06-14T07:52:37;17.80;;;5.83;;
5355;SDS011;70449;52.486;13.386;2023-06-14T07:55:05;18.70;;;5.77;;
5355;SDS011;70449;52.486;13.386;2023-06-14T07:57:33;22.70;;;5.70;;
5355;SDS011;70449;52.486;13.386;2023-06-14T08:00:02;7.13;;;4.90;;
5355;SDS011;70449;52.486;13.386;2023-06-14T08:02:32;24.33;;;6.10;;
5355;SDS011;70449;52.486;13.386;2023-06-14T08:04:59;10.20;;;5.03;;
5355;SDS011;70449;52.486;13.386;2023-06-14T08:07:26;12.13;;;5.20;;
5355;SDS011;70449;52.486;13.386;2023-06-14T08:09:54;15.00;;;5.63;;
5355;SDS011;70449;52.486;13.386;2023-06-14T08:12:21;18.33;;;6.63;;
5355;SDS011;70449;52.486;13.386;2023-06-14T08:14:48;13.23;;;5.07;;
5355;SDS011;70449;52.486;13.386;2023-06-14T08:17:18;11.30;;;5.63;;
5355;SDS011;70449;52.486;13.386;2023-06-14T08:19:45;13.00;;;5.17;;
5355;SDS011;70449;52.486;13.386;2023-06-14T08:22:12;17.13;;;5.50;;
5355;SDS011;70449;52.486;13.386;2023-06-14T08:24:39;8.80;;;4.30;;
5355;SDS011;70449;52.486;13.386;2023-06-14T08:27:07;18.53;;;5.77;;
5355;SDS011;70449;52.486;13.386;2023-06-14T08:29:38;9.83;;;5.03;;
5355;SDS011;70449;52.486;13.386;2023-06-14T08:32:06;25.67;;;5.07;;
5355;SDS011;70449;52.486;13.386;2023-06-14T08:34:35;14.70;;;5.37;;
5355;SDS011;70449;52.486;13.386;2023-06-14T08:37:02;15.40;;;4.93;;
5355;SDS011;70449;52.486;13.386;2023-06-14T08:39:31;8.60;;;4.53;;
5355;SDS011;70449;52.486;13.386;2023-06-14T08:41:59;8.83;;;4.67;;
5355;SDS011;70449;52.486;13.386;2023-06-14T08:44:29;13.03;;;5.10;;
5355;SDS011;70449;52.486;13.386;2023-06-14T08:46:56;5.70;;;4.23;;
5355;SDS011;70449;52.486;13.386;2023-06-14T08:49:26;7.70;;;4.27;;
5355;SDS011;70449;52.486;13.386;2023-06-14T08:51:56;4.50;;;3.40;;
5355;SDS011;70449;52.486;13.386;2023-06-14T08:54:25;7.33;;;3.83;;
5355;SDS011;70449;52.486;13.386;2023-06-14T08:56:55;8.67;;;4.07;;
5355;SDS011;70449;52.486;13.386;2023-06-14T08:59:23;21.30;;;5.43;;
5355;SDS011;70449;52.486;13.386;2023-06-14T09:01:52;10.07;;;4.00;;
5355;SDS011;70449;52.486;13.386;2023-06-14T09:04:20;8.10;;;4.03;;
5355;SDS011;70449;52.486;13.386;2023-06-14T09:06:49;16.70;;;3.60;;
5355;SDS011;70449;52.486;13.386;2023-06-14T09:09:20;10.73;;;4.53;;
5355;SDS011;70449;52.486;13.386;2023-06-14T09:11:48;8.17;;;4.07;;
5355;SDS011;70449;52.486;13.386;2023-06-14T09:14:17;5.90;;;4.63;;
5355;SDS011;70449;52.486;13.386;2023-06-14T09:16:45;23.23;;;4.90;;
5355;SDS011;70449;52.486;13.386;2023-06-14T09:19:13;8.80;;;3.63;;
5355;SDS011;70449;52.486;13.386;2023-06-14T09:21:47;13.77;;;5.47;;
5355;SDS011;70449;52.486;13.386;2023-06-14T09:24:18;9.50;;;3.70;;
5355;SDS011;70449;52.486;13.386;2023-06-14T09:26:47;17.00;;;4.70;;
5355;SDS011;70449;52.486;13.386;2023-06-14T09:29:15;13.10;;;5.50;;
5355;SDS011;70449;52.486;13.386;2023-06-14T09:31:45;13.50;;;4.30;;
5355;SDS011;70449;52.486;13.386;2023-06-14T09:34:13;11.27;;;3.90;;
5355;SDS011;70449;52.486;13.386;2023-06-14T09:36:43;8.40;;;4.20;;
5355;SDS011;70449;52.486;13.386;2023-06-14T09:39:10;10.03;;;3.57;;
5355;SDS011;70449;52.486;13.386;2023-06-14T09:41:44;13.33;;;4.13;;
5355;SDS011;70449;52.486;13.386;2023-06-14T09:44:11;14.83;;;4.20;;
5355;SDS011;70449;52.486;13.386;2023-06-14T09:46:38;5.00;;;3.90;;
5355;SDS011;70449;52.486;13.386;2023-06-14T09:49:06;13.20;;;4.00;;
5355;SDS011;70449;52.486;13.386;2023-06-14T09:51:35;6.30;;;4.07;;
5355;SDS011;70449;52.486;13.386;2023-06-14T09:54:12;11.87;;;4.03;;
5355;SDS011;70449;52.486;13.386;2023-06-14T09:56:48;7.60;;;4.17;;
5355;SDS011;70449;52.486;13.386;2023-06-14T09:59:19;7.37;;;4.50;;
5355;SDS011;70449;52.486;13.386;2023-06-14T10:01:55;8.70;;;3.63;;
5355;SDS011;70449;52.486;13.386;2023-06-14T10:04:28;14.23;;;4.07;;
5355;SDS011;70449;52.486;13.386;2023-06-14T10:06:57;9.37;;;4.80;;
5355;SDS011;70449;52.486;13.386;2023-06-14T10:09:27;11.40;;;4.50;;
5355;SDS011;70449;52.486;13.386;2023-06-14T10:11:57;15.23;;;5.10;;
5355;SDS011;70449;52.486;13.386;2023-06-14T10:14:24;12.57;;;3.83;;
5355;SDS011;70449;52.486;13.386;2023-06-14T10:16:56;9.97;;;4.93;;
5355;SDS011;70449;52.486;13.386;2023-06-14T10:20:10;12.17;;;5.60;;
5355;SDS011;70449;52.486;13.386;2023-06-14T10:22:49;13.73;;;4.87;;
5355;SDS011;70449;52.486;13.386;2023-06-14T10:25:26;9.47;;;4.60;;
5355;SDS011;70449;52.486;13.386;2023-06-14T10:28:03;12.50;;;3.93;;
5355;SDS011;70449;52.486;13.386;2023-06-14T10:31:01;16.47;;;4.60;;
5355;SDS011;70449;52.486;13.386;2023-06-14T10:33:30;8.60;;;4.23;;
5355;SDS011;70449;52.486;13.386;2023-06-14T10:36:07;9.27;;;4.50;;
5355;SDS011;70449;52.486;13.386;2023-06-14T10:38:58;12.47;;;3.90;;
5355;SDS011;70449;52.486;13.386;2023-06-14T10:41:30;19.87;;;4.73;;
5355;SDS011;70449;52.486;13.386;2023-06-14T10:47:21;17.63;;;3.67;;
5355;SDS011;70449;52.486;13.386;2023-06-14T10:49:54;7.83;;;4.40;;
5355;SDS011;70449;52.486;13.386;2023-06-14T10:52:26;6.20;;;3.10;;
5355;SDS011;70449;52.486;13.386;2023-06-14T10:57:41;11.43;;;3.90;;
5355;SDS011;70449;52.486;13.386;2023-06-14T11:00:13;10.67;;;3.93;;
5355;SDS011;70449;52.486;13.386;2023-06-14T11:03:03;14.93;;;4.67;;
5355;SDS011;70449;52.486;13.386;2023-06-14T11:06:14;8.57;;;3.50;;
5355;SDS011;70449;52.486;13.386;2023-06-14T11:08:56;13.10;;;4.40;;
5355;SDS011;70449;52.486;13.386;2023-06-14T11:11:59;9.93;;;3.87;;
5355;SDS011;70449;52.486;13.386;2023-06-14T11:14:29;7.27;;;4.80;;
5355;SDS011;70449;52.486;13.386;2023-06-14T11:16:58;12.30;;;4.63;;
5355;SDS011;70449;52.486;13.386;2023-06-14T11:19:25;13.33;;;5.60;;
5355;SDS011;70449;52.486;13.386;2023-06-14T11:21:54;10.93;;;3.63;;
5355;SDS011;70449;52.486;13.386;2023-06-14T11:24:21;14.27;;;4.57;;
5355;SDS011;70449;52.486;13.386;2023-06-14T11:26:49;16.33;;;5.13;;
5355;SDS011;70449;52.486;13.386;2023-06-14T11:29:16;7.33;;;3.60;;
5355;SDS011;70449;52.486;13.386;2023-06-14T11:31:46;25.17;;;5.10;;
5355;SDS011;70449;52.486;13.386;2023-06-14T11:34:15;12.70;;;3.90;;
5355;SDS011;70449;52.486;13.386;2023-06-14T11:36:43;9.60;;;4.40;;
5355;SDS011;70449;52.486;13.386;2023-06-14T11:39:12;12.63;;;4.18;;
5355;SDS011;70449;52.486;13.386;2023-06-14T11:41:40;17.05;;;4.60;;
5355;SDS011;70449;52.486;13.386;2023-06-14T11:44:09;24.00;;;4.70;;
5355;SDS011;70449;52.486;13.386;2023-06-14T11:46:38;10.10;;;4.30;;
5355;SDS011;70449;52.486;13.386;2023-06-14T11:49:06;15.18;;;4.13;;
5355;SDS011;70449;52.486;13.386;2023-06-14T11:51:36;9.15;;;3.55;;
5355;SDS011;70449;52.486;13.386;2023-06-14T11:54:04;6.65;;;4.15;;
5355;SDS011;70449;52.486;13.386;2023-06-14T11:56:34;5.20;;;4.10;;
5355;SDS011;70449;52.486;13.386;2023-06-14T11:59:02;13.80;;;3.97;;
5355;SDS011;70449;52.486;13.386;2023-06-14T12:01:30;7.90;;;3.40;;
5355;SDS011;70449;52.486;13.386;2023-06-14T12:03:58;6.15;;;3.50;;
5355;SDS011;70449;52.486;13.386;2023-06-14T12:06:27;7.78;;;4.00;;
5355;SDS011;70449;52.486;13.386;2023-06-14T12:09:00;11.83;;;3.87;;
5355;SDS011;70449;52.486;13.386;2023-06-14T12:11:32;8.55;;;4.22;;
5355;SDS011;70449;52.486;13.386;2023-06-14T12:14:02;6.13;;;4.03;;
5355;SDS011;70449;52.486;13.386;2023-06-14T12:16:31;20.58;;;4.97;;
5355;SDS011;70449;52.486;13.386;2023-06-14T12:19:07;12.35;;;4.80;;
5355;SDS011;70449;52.486;13.386;2023-06-14T12:21:39;7.75;;;3.88;;
5355;SDS011;70449;52.486;13.386;2023-06-14T12:24:09;8.15;;;3.75;;
5355;SDS011;70449;52.486;13.386;2023-06-14T12:26:38;17.60;;;4.10;;
5355;SDS011;70449;52.486;13.386;2023-06-14T12:29:06;8.85;;;4.25;;
5355;SDS011;70449;52.486;13.386;2023-06-14T12:31:34;13.48;;;3.95;;
5355;SDS011;70449;52.486;13.386;2023-06-14T12:34:01;23.10;;;4.30;;
5355;SDS011;70449;52.486;13.386;2023-06-14T12:36:29;8.75;;;3.67;;
5355;SDS011;70449;52.486;13.386;2023-06-14T12:38:57;13.07;;;7.93;;
5355;SDS011;70449;52.486;13.386;2023-06-14T12:41:25;5.05;;;3.00;;
5355;SDS011;70449;52.486;13.386;2023-06-14T12:43:53;6.65;;;4.35;;
5355;SDS011;70449;52.486;13.386;2023-06-14T12:46:20;24.80;;;4.60;;
5355;SDS011;70449;52.486;13.386;2023-06-14T12:48:47;19.25;;;4.13;;
5355;SDS011;70449;52.486;13.386;2023-06-14T12:51:20;12.55;;;3.35;;
5355;SDS011;70449;52.486;13.386;2023-06-14T12:53:48;10.50;;;3.50;;
5355;SDS011;70449;52.486;13.386;2023-06-14T12:56:19;10.70;;;3.17;;
5355;SDS011;70449;52.486;13.386;2023-06-14T12:58:48;7.50;;;3.88;;
5355;SDS011;70449;52.486;13.386;2023-06-14T13:01:15;10.25;;;3.30;;
5355;SDS011;70449;52.486;13.386;2023-06-14T13:03:48;7.90;;;3.78;;
5355;SDS011;70449;52.486;13.386;2023-06-14T13:06:20;4.88;;;3.40;;
5355;SDS011;70449;52.486;13.386;2023-06-14T13:08:48;4.85;;;3.70;;
5355;SDS011;70449;52.486;13.386;2023-06-14T13:11:16;10.70;;;3.53;;
5355;SDS011;70449;52.486;13.386;2023-06-14T13:13:43;6.75;;;3.88;;
5355;SDS011;70449;52.486;13.386;2023-06-14T13:16:12;5.38;;;3.60;;
5355;SDS011;70449;52.486;13.386;2023-06-14T13:18:43;9.88;;;3.67;;
5355;SDS011;70449;52.486;13.386;2023-06-14T13:21:12;7.65;;;3.83;;
5355;SDS011;70449;52.486;13.386;2023-06-14T13:23:40;6.70;;;3.92;;
5355;SDS011;70449;52.486;13.386;2023-06-14T13:26:07;16.70;;;5.80;;
5355;SDS011;70449;52.486;13.386;2023-06-14T13:28:35;11.30;;;4.60;;
5355;SDS011;70449;52.486;13.386;2023-06-14T13:31:02;10.20;;;4.38;;
5355;SDS011;70449;52.486;13.386;2023-06-14T13:33:31;17.80;;;3.15;;
5355;SDS011;70449;52.486;13.386;2023-06-14T13:35:59;12.07;;;3.20;;
5355;SDS011;70449;52.486;13.386;2023-06-14T13:38:27;8.60;;;4.22;;
5355;SDS011;70449;52.486;13.386;2023-06-14T13:40:55;11.68;;;4.03;;
5355;SDS011;70449;52.486;13.386;2023-06-14T13:43:22;17.70;;;5.03;;
5355;SDS011;70449;52.486;13.386;2023-06-14T13:45:49;10.07;;;3.92;;
5355;SDS011;70449;52.486;13.386;2023-06-14T13:48:17;5.57;;;3.38;;
5355;SDS011;70449;52.486;13.386;2023-06-14T13:50:45;10.50;;;3.75;;
5355;SDS011;70449;52.486;13.386;2023-06-14T13:53:16;8.65;;;3.35;;
5355;SDS011;70449;52.486;13.386;2023-06-14T13:55:48;14.07;;;3.40;;
5355;SDS011;70449;52.486;13.386;2023-06-14T13:58:16;10.35;;;3.45;;
5355;SDS011;70449;52.486;13.386;2023-06-14T14:00:43;12.82;;;3.47;;
5355;SDS011;70449;52.486;13.386;2023-06-14T14:03:11;32.72;;;3.85;;
5355;SDS011;70449;52.486;13.386;2023-06-14T14:05:40;12.07;;;4.95;;
5355;SDS011;70449;52.486;13.386;2023-06-14T14:08:09;8.95;;;3.78;;
5355;SDS011;70449;52.486;13.386;2023-06-14T14:10:37;9.32;;;3.10;;
5355;SDS011;70449;52.486;13.386;2023-06-14T14:13:04;11.05;;;3.75;;
5355;SDS011;70449;52.486;13.386;2023-06-14T14:15:34;8.77;;;3.28;;
5355;SDS011;70449;52.486;13.386;2023-06-14T14:18:06;6.68;;;4.00;;
5355;SDS011;70449;52.486;13.386;2023-06-14T14:20:33;7.60;;;3.92;;
5355;SDS011;70449;52.486;13.386;2023-06-14T14:23:01;10.23;;;3.97;;
5355;SDS011;70449;52.486;13.386;2023-06-14T14:25:30;6.20;;;3.65;;
5355;SDS011;70449;52.486;13.386;2023-06-14T14:27:57;9.70;;;3.05;;
5355;SDS011;70449;52.486;13.386;2023-06-14T14:30:25;8.77;;;3.65;;
5355;SDS011;70449;52.486;13.386;2023-06-14T14:32:57;5.82;;;3.53;;
5355;SDS011;70449;52.486;13.386;2023-06-14T14:35:25;17.48;;;4.38;;
5355;SDS011;70449;52.486;13.386;2023-06-14T14:37:55;9.55;;;6.07;;
5355;SDS011;70449;52.486;13.386;2023-06-14T14:40:22;33.35;;;4.93;;
5355;SDS011;70449;52.486;13.386;2023-06-14T14:42:51;7.90;;;3.00;;
5355;SDS011;70449;52.486;13.386;2023-06-14T14:45:18;11.40;;;3.45;;
5355;SDS011;70449;52.486;13.386;2023-06-14T14:47:46;8.80;;;3.80;;
5355;SDS011;70449;52.486;13.386;2023-06-14T14:50:13;9.85;;;4.65;;
5355;SDS011;70449;52.486;13.386;2023-06-14T14:52:41;7.95;;;4.78;;
5355;SDS011;70449;52.486;13.386;2023-06-14T14:55:08;13.68;;;3.92;;
5355;SDS011;70449;52.486;13.386;2023-06-14T14:57:35;8.88;;;3.75;;
5355;SDS011;70449;52.486;13.386;2023-06-14T15:00:07;11.80;;;3.90;;